Bookmark and Share
Track history (hours):
 

Marco Polo

Operator: Orient Lines

Last reported at 2014-Apr-15 01:34 UTC. Time now 2014-Apr-18 10:47 UTC.
Position N 59°26' E 005°14'.

Type: Ship. MMSI: 308693000.

NotesDate/timePositionNaut miles runAvg speedWind from/ knotsBaromVisibWave heightAir tempDewpointWater temp
2014-Apr-15 01:34N 59°26' E 005°14'1212.4
2014-Apr-15 00:34N 59°14' E 005°21'1514.6
2014-Apr-14 23:34N 58°60' E 005°19'1615.8
2014-Apr-14 22:34N 58°44' E 005°13'38115.8
2014-Apr-13 22:32N 52°36' E 002°22'3316.7
2014-Apr-13 20:34N 52°07' E 001°58'1615.9
2014-Apr-13 19:33N 51°52' E 001°48'1111.0
2014-Apr-13 18:33N 51°46' E 001°32'1615.9
2014-Apr-13 17:34N 51°35' E 001°15'1716.3
2014-Apr-13 16:32N 51°29' E 000°49'1515.0
2014-Apr-13 15:33N 51°27' E 000°26'3 2.6
2014-Apr-13 14:34N 51°27' E 000°22'0 0.0
2014-Apr-13 13:34N 51°27' E 000°22'0 0.0
2014-Apr-13 12:34N 51°27' E 000°22'0 0.0
2014-Apr-13 11:34N 51°27' E 000°22'0 0.0
2014-Apr-13 10:34N 51°27' E 000°22'0 0.0
2014-Apr-13 09:34N 51°27' E 000°22'0 0.0
2014-Apr-13 08:34N 51°27' E 000°22'1 0.9
2014-Apr-13 07:34N 51°27' E 000°23'1313.2
2014-Apr-13 06:33N 51°30' E 000°44'1717.3
2014-Apr-13 05:33N 51°34' E 001°11'1010.4
2014-Apr-13 04:33N 51°33' E 001°28'1010.3
2014-Apr-13 03:33N 51°23' E 001°34'1111.2
2014-Apr-13 02:33N 51°13' E 001°40'1412.1
2014-Apr-13 01:26N 50°60' E 001°32'4314.8
2014-Apr-12 22:34N 50°27' E 000°48'1514.8
2014-Apr-12 21:32N 50°23' E 000°26'5014.8
2014-Apr-12 18:08N 49°36' W 000°06'814.0
2014-Apr-12 17:34N 49°29' W 000°03'1010.0
2014-Apr-12 16:34N 49°26' E 000°12'1 1.4
2014-Apr-12 15:33N 49°26' E 000°14'0 0.0
2014-Apr-12 14:33N 49°26' E 000°14'0 0.0
2014-Apr-12 13:33N 49°26' E 000°14'0 0.0
2014-Apr-12 12:32N 49°26' E 000°14'0 0.0
2014-Apr-12 11:26N 49°26' E 000°14'0 0.0
2014-Apr-12 10:31N 49°26' E 000°14'0 0.0
2014-Apr-12 09:31N 49°26' E 000°14'0 0.0
2014-Apr-12 08:34N 49°26' E 000°14'0 0.0
2014-Apr-12 07:33N 49°26' E 000°14'0 0.0
2014-Apr-12 06:34N 49°26' E 000°14'5 4.7
2014-Apr-12 05:34N 49°26' E 000°07'1313.3
2014-Apr-12 04:33N 49°31' W 000°12'  
2014-Apr-09 12:06N 53°21' W 006°13'0 0.0
2014-Apr-09 11:29N 53°21' W 006°13'0 0.0
2014-Apr-09 10:29N 53°21' W 006°13'0 0.0
2014-Apr-09 08:28N 53°21' W 006°13'0 0.0
2014-Apr-09 07:14N 53°21' W 006°13'0 0.1
2014-Apr-09 06:33N 53°21' W 006°13'11214.0
2014-Apr-08 22:33N 55°13' W 005°57'1616.4
2014-Apr-08 21:34N 55°24' W 006°18'1717.0
2014-Apr-08 20:33N 55°38' W 006°34'151 6.0
2014-Apr-07 19:12N 58°10' W 006°21'2 1.5
2014-Apr-07 17:33N 58°12' W 006°22'0 0.0
2014-Apr-07 16:33N 58°12' W 006°22'0 0.0
2014-Apr-07 15:33N 58°12' W 006°22'0 0.0
2014-Apr-07 14:33N 58°12' W 006°22'0 0.0
2014-Apr-07 13:33N 58°12' W 006°22'0 0.0
2014-Apr-07 12:33N 58°12' W 006°22'0 0.0
2014-Apr-07 11:33N 58°12' W 006°22'0 0.0
2014-Apr-07 10:33N 58°12' W 006°22'0 0.0
2014-Apr-07 09:33N 58°12' W 006°22'0 0.0
2014-Apr-07 08:26N 58°12' W 006°22'0 0.0
2014-Apr-07 07:32N 58°12' W 006°22'0 0.0
2014-Apr-07 06:33N 58°12' W 006°22'1 0.8
2014-Apr-07 05:33N 58°11' W 006°22'1211.9
2014-Apr-07 04:34N 58°15' W 006°00'6614.7
2014-Apr-07 00:03N 58°42' W 004°05'713.9
2014-Apr-06 23:31N 58°43' W 003°51'1414.4
2014-Apr-06 22:33N 58°44' W 003°24'1514.7
2014-Apr-06 21:33N 58°39' W 002°57'63 3.0
2014-Apr-06 00:33N 57°45' W 001°55'1413.8
2014-Apr-05 23:33N 57°35' W 001°38'1514.9
2014-Apr-05 22:33N 57°20' W 001°30'16515.0
2014-Apr-05 11:33N 54°43' W 000°02'1515.4
2014-Apr-05 10:33N 54°28' E 000°06'1514.8
2014-Apr-05 09:33N 54°14' E 000°14'1414.1
2014-Apr-05 08:34N 54°01' E 000°22'5713.9
2014-Apr-05 04:28N 53°14' E 001°18'1415.7
2014-Apr-05 03:33N 53°04' E 001°35'1615.8
2014-Apr-05 02:34N 52°56' E 001°58'  

Dump ship's entire track history

sailing weather and tide predictions

Marco Polo — C6JZ7 — position and weather